Time;durP1;ratioP1;P1;durP2;ratioP2;P2;SDS_P1;SDS_P2;PMS_P1;PMS_P2;Temp;Humidity;BMP_temperature;BMP_pressure;BME280_temperature;BME280_humidity;BME280_pressure;Samples;Min_cycle;Max_cycle;Signal;HPM_P1;HPM_P2
2023/03/08 00:01:12;;;;;;;14.07;1.90;;;;;;;-144.73;93.12;54461.06;4962767;28;20085;-69
2023/03/08 00:03:37;;;;;;;7.37;1.73;;;;;;;-144.73;92.48;54465.16;4977257;28;20034;-69
2023/03/08 00:06:04;;;;;;;8.90;2.20;;;;;;;-144.73;93.20;54430.28;4969867;28;20052;-70
2023/03/08 00:08:29;;;;;;;13.80;2.20;;;;;;;-144.73;93.13;54485.69;4978448;28;20035;-70
2023/03/08 00:10:55;;;;;;;14.97;1.97;;;;;;;-144.73;92.58;54424.13;4970158;28;20134;-70
2023/03/08 00:13:20;;;;;;;6.90;2.00;;;;;;;-144.73;93.36;54448.75;4970137;28;20038;-70
2023/03/08 00:15:45;;;;;;;9.60;1.87;;;;;;;-144.73;93.40;54436.44;4978867;28;20121;-70
2023/03/08 00:18:11;;;;;;;8.07;1.80;;;;;;;-144.73;93.40;54456.97;4984694;28;20471;-70
2023/03/08 00:20:36;;;;;;;9.03;1.93;;;;;;;-144.73;93.22;54461.06;4978932;28;20038;-70
2023/03/08 00:23:02;;;;;;;11.33;2.30;;;;;;;-144.73;93.45;54444.66;4976033;28;20042;-70
2023/03/08 00:25:27;;;;;;;20.33;2.20;;;;;;;-144.73;93.61;54465.16;4967225;28;20022;-70
2023/03/08 00:27:52;;;;;;;19.47;2.57;;;;;;;-144.73;93.57;54481.59;4974717;28;20054;-70
2023/03/08 00:30:18;;;;;;;12.17;2.47;;;;;;;-144.73;93.64;54440.53;4971101;28;20439;-69
2023/03/08 00:32:43;;;;;;;12.67;2.10;;;;;;;-144.73;93.85;54489.81;4978614;28;20022;-70
2023/03/08 00:35:09;;;;;;;14.03;2.60;;;;;;;-144.73;94.08;54430.28;4967794;28;20109;-70
2023/03/08 00:37:34;;;;;;;9.23;2.00;;;;;;;-144.73;94.15;54448.75;4966425;28;20110;-69
2023/03/08 00:40:00;;;;;;;9.53;2.10;;;;;;;-144.73;94.00;54395.38;4974386;28;20038;-70
2023/03/08 00:42:26;;;;;;;17.77;2.90;;;;;;;-144.73;94.14;54485.69;4971353;28;20110;-70
2023/03/08 00:44:51;;;;;;;9.70;2.30;;;;;;;-144.73;93.97;54477.47;4962097;28;20031;-69
2023/03/08 00:47:17;;;;;;;24.07;2.60;;;;;;;-144.73;94.51;54428.22;4987580;28;20025;-70
2023/03/08 00:49:42;;;;;;;12.07;2.13;;;;;;;-144.73;95.35;54461.06;4983659;28;20062;-70
2023/03/08 00:52:08;;;;;;;6.57;2.30;;;;;;;-144.73;95.17;54483.66;4978690;28;20502;-71
2023/03/08 00:54:34;;;;;;;7.63;1.90;;;;;;;-144.73;95.50;54461.06;4977557;28;20129;-70
2023/03/08 00:56:59;;;;;;;14.67;2.70;;;;;;;-144.73;95.26;54407.69;4978445;28;20034;-70
2023/03/08 00:59:25;;;;;;;12.90;2.23;;;;;;;-144.73;94.91;54456.97;4973281;28;20035;-70
2023/03/08 01:01:50;;;;;;;14.70;2.50;;;;;;;-144.73;94.57;54428.22;4966023;28;20018;-70
2023/03/08 01:04:15;;;;;;;4.60;2.40;;;;;;;-144.73;95.71;54415.91;4974145;28;20089;-70
2023/03/08 01:06:44;;;;;;;11.10;2.40;;;;;;;-144.73;95.79;54428.22;4965080;28;20018;-71
2023/03/08 01:09:10;;;;;;;9.57;2.23;;;;;;;-144.73;95.39;54479.53;4968594;28;20072;-70
2023/03/08 01:11:36;;;;;;;11.40;3.10;;;;;;;-144.73;94.75;54452.84;4963269;28;20022;-70
2023/03/08 01:14:03;;;;;;;10.60;2.47;;;;;;;-144.73;94.88;54469.28;4964737;28;20582;-70
2023/03/08 01:16:32;;;;;;;12.13;3.20;;;;;;;-144.73;94.99;54436.44;4969966;28;20025;-70
2023/03/08 01:18:59;;;;;;;9.70;2.43;;;;;;;-144.73;95.17;54428.22;4999539;28;20058;-70
2023/03/08 01:21:25;;;;;;;12.07;2.33;;;;;;;-144.73;94.82;54444.66;4964832;28;20014;-70
2023/03/08 01:23:51;;;;;;;8.37;2.23;;;;;;;-144.73;94.34;54446.69;4972193;28;20491;-70
2023/03/08 01:26:20;;;;;;;17.43;3.40;;;;;;;-144.73;94.70;54448.75;4973847;28;20048;-70
2023/03/08 01:28:46;;;;;;;7.90;2.70;;;;;;;-144.73;94.89;54473.38;4970932;28;20109;-70
2023/03/08 01:31:16;;;;;;;9.17;2.97;;;;;;;-144.73;94.50;54481.59;4976428;28;20118;-70
2023/03/08 01:33:43;;;;;;;6.97;2.20;;;;;;;-144.73;95.18;54420.00;4961935;28;20058;-70
2023/03/08 01:36:11;;;;;;;9.10;3.13;;;;;;;-144.73;95.47;54422.06;4966530;28;20030;-71
2023/03/08 01:38:37;;;;;;;9.57;2.97;;;;;;;-144.73;95.40;54473.38;4968257;28;20038;-70
2023/03/08 01:41:04;;;;;;;5.93;3.03;;;;;;;-144.73;95.27;54467.22;4967901;28;20026;-70
2023/03/08 01:43:32;;;;;;;12.57;3.60;;;;;;;-144.73;95.59;54428.22;4965487;28;20031;-70
2023/03/08 01:46:22;;;;;;;18.23;3.47;;;;;;;-144.73;95.79;54469.28;4973501;28;20022;-70
2023/03/08 01:49:20;;;;;;;8.23;3.27;;;;;;;-144.73;96.07;54493.91;4970861;28;20034;-70
2023/03/08 01:52:05;;;;;;;10.83;3.00;;;;;;;-144.73;96.35;54452.84;4968431;28;20034;-69
2023/03/08 01:54:38;;;;;;;10.90;3.67;;;;;;;-144.73;96.79;54432.31;4971931;28;20027;-69
2023/03/08 01:57:21;;;;;;;8.57;3.30;;;;;;;-144.73;97.27;54456.97;4964528;28;20026;-70
2023/03/08 01:59:49;;;;;;;9.80;4.03;;;;;;;-144.73;96.96;54440.53;4979494;28;20077;-70
2023/03/08 02:02:24;;;;;;;12.87;3.63;;;;;;;-144.73;97.42;54456.97;4975112;28;20030;-70
2023/03/08 02:04:49;;;;;;;7.97;3.50;;;;;;;-144.73;97.24;54432.31;4974459;28;20169;-70
2023/03/08 02:07:15;;;;;;;8.03;4.07;;;;;;;-144.73;97.43;54477.47;4972946;28;20081;-70
2023/03/08 02:09:40;;;;;;;14.27;4.63;;;;;;;-144.73;97.21;54440.53;4968858;28;20034;-69
2023/03/08 02:12:10;;;;;;;14.20;4.50;;;;;;;-144.73;96.87;54479.53;4990551;28;20018;-70
2023/03/08 02:14:35;;;;;;;12.53;4.57;;;;;;;-144.73;97.24;54456.97;4968678;28;20038;-70
2023/03/08 02:17:01;;;;;;;17.47;4.60;;;;;;;-144.73;97.19;54461.06;4975235;28;20021;-70
2023/03/08 02:19:42;;;;;;;10.53;4.43;;;;;;;-144.73;97.90;54444.66;4967602;28;20030;-70
2023/03/08 02:22:10;;;;;;;17.10;6.05;;;;;;;-144.73;98.41;54465.16;4974253;28;20138;-70
2023/03/08 02:24:35;;;;;;;12.17;5.13;;;;;;;-144.73;98.06;54452.84;4963985;28;20026;-70
2023/03/08 02:27:06;;;;;;;16.23;5.87;;;;;;;-144.73;98.26;54469.28;4971362;28;20021;-70
2023/03/08 02:29:31;;;;;;;18.20;4.97;;;;;;;-144.73;98.50;54465.16;4982142;28;20045;-70
2023/03/08 02:31:57;;;;;;;17.67;5.57;;;;;;;-144.73;98.99;54465.16;4967375;28;20030;-70
2023/03/08 02:34:22;;;;;;;17.00;5.70;;;;;;;-144.73;98.41;54448.75;4982841;28;20376;-71
2023/03/08 02:36:47;;;;;;;10.53;5.17;;;;;;;-144.73;98.35;54450.81;4973746;28;20030;-71
2023/03/08 02:39:13;;;;;;;8.67;5.43;;;;;;;-144.73;97.97;54461.06;4976175;28;20041;-71
2023/03/08 02:41:38;;;;;;;12.53;5.97;;;;;;;-144.73;99.06;54436.44;4974534;28;20054;-71
2023/03/08 02:44:04;;;;;;;20.93;6.40;;;;;;;-144.73;99.52;54452.84;4979570;28;20030;-71
2023/03/08 02:46:29;;;;;;;9.40;5.27;;;;;;;-144.73;98.77;54440.53;4978501;28;20010;-70
2023/03/08 02:48:54;;;;;;;11.90;5.63;;;;;;;-144.73;98.92;54477.47;4977937;28;20121;-70
2023/03/08 02:51:20;;;;;;;18.60;6.93;;;;;;;-144.73;99.00;54461.06;4975891;28;20113;-69
2023/03/08 02:53:45;;;;;;;15.40;8.20;;;;;;;-144.73;99.72;54432.31;4980500;28;20030;-69
2023/03/08 02:56:11;;;;;;;20.53;9.97;;;;;;;-144.73;100.00;54465.16;4977975;28;20022;-70
2023/03/08 02:58:36;;;;;;;23.13;10.93;;;;;;;-144.73;100.00;54444.66;4969707;28;20027;-70
2023/03/08 03:01:02;;;;;;;22.17;14.70;;;;;;;-144.73;100.00;54473.38;4969196;28;20027;-70
2023/03/08 03:03:27;;;;;;;25.00;13.67;;;;;;;-144.73;100.00;54432.31;4969303;28;20031;-70
2023/03/08 03:05:52;;;;;;;22.10;13.30;;;;;;;-144.73;100.00;54444.66;4977844;28;20102;-70
2023/03/08 03:08:18;;;;;;;29.97;13.03;;;;;;;-144.73;100.00;54446.69;4976752;28;20070;-71
2023/03/08 03:10:43;;;;;;;25.10;14.83;;;;;;;-144.73;100.00;54456.97;4969685;28;20026;-70
2023/03/08 03:13:09;;;;;;;25.20;13.73;;;;;;;-144.73;100.00;54424.13;4977368;28;20035;-70
2023/03/08 03:15:38;;;;;;;27.17;12.37;;;;;;;-144.73;100.00;54436.44;4994056;28;20024;-70
2023/03/08 03:18:04;;;;;;;25.87;13.57;;;;;;;-144.73;100.00;54469.28;4968722;28;20038;-71
2023/03/08 03:20:31;;;;;;;22.10;11.17;;;;;;;-144.73;100.00;54465.16;4981885;28;20023;-70
2023/03/08 03:22:57;;;;;;;20.77;9.27;;;;;;;-144.73;100.00;54452.84;4965538;28;20018;-71
2023/03/08 03:25:23;;;;;;;30.70;11.50;;;;;;;-144.73;100.00;54407.69;4976637;28;20049;-71
2023/03/08 03:27:48;;;;;;;18.80;9.87;;;;;;;-144.73;100.00;54444.66;4970639;28;20019;-70
2023/03/08 03:30:14;;;;;;;17.13;10.03;;;;;;;-144.73;100.00;54446.69;4974233;28;20022;-71
2023/03/08 03:32:39;;;;;;;18.73;8.80;;;;;;;-144.73;100.00;54465.16;4969727;28;20197;-71
2023/03/08 03:35:05;;;;;;;24.73;10.43;;;;;;;-144.73;100.00;54469.28;4976822;28;20018;-71
2023/03/08 03:37:33;;;;;;;16.97;10.10;;;;;;;-144.73;100.00;54477.47;4974965;28;20018;-70
2023/03/08 03:39:58;;;;;;;17.07;10.43;;;;;;;-144.73;99.97;54481.59;4976512;28;20029;-71
2023/03/08 03:42:24;;;;;;;20.00;11.27;;;;;;;-144.73;100.00;54461.06;4966628;28;20030;-70
2023/03/08 03:44:49;;;;;;;16.90;11.63;;;;;;;-144.73;100.00;54440.53;4968229;28;20062;-70
2023/03/08 03:47:15;;;;;;;23.07;12.60;;;;;;;-144.73;99.89;54456.97;4986571;28;20027;-70
2023/03/08 03:49:40;;;;;;;21.23;12.43;;;;;;;-144.73;99.60;54477.47;4992911;28;20088;-71
2023/03/08 03:52:06;;;;;;;19.70;13.30;;;;;;;-144.73;99.42;54436.44;4976961;28;20068;-71
2023/03/08 03:54:31;;;;;;;21.17;12.53;;;;;;;-144.73;98.72;54469.28;4968219;28;20044;-71
2023/03/08 03:56:57;;;;;;;24.57;12.53;;;;;;;-144.73;99.00;54452.84;4980826;28;20046;-71
2023/03/08 03:59:24;;;;;;;19.83;10.67;;;;;;;-144.73;98.61;54493.91;4984122;28;20035;-70
2023/03/08 04:01:49;;;;;;;19.30;11.40;;;;;;;-144.73;98.24;54469.28;4962996;28;20027;-70
2023/03/08 04:04:15;;;;;;;22.97;10.07;;;;;;;-144.73;97.35;54446.69;4973629;28;20037;-70
2023/03/08 04:06:40;;;;;;;14.23;10.00;;;;;;;-144.73;97.31;54473.38;4991611;28;20372;-70
2023/03/08 04:09:12;;;;;;;13.20;9.97;;;;;;;-144.73;97.38;54450.81;4978717;28;20042;-71
2023/03/08 04:11:38;;;;;;;17.67;10.53;;;;;;;-144.73;97.48;54465.16;4971883;28;20031;-71
2023/03/08 04:14:05;;;;;;;18.90;10.70;;;;;;;-144.73;97.58;54452.84;4964363;28;20039;-69
2023/03/08 04:16:33;;;;;;;19.27;11.33;;;;;;;-144.73;97.73;54500.06;4968610;28;20030;-70
2023/03/08 04:19:25;;;;;;;18.90;10.63;;;;;;;-144.73;98.14;54461.06;4983001;28;20039;-70
2023/03/08 04:21:50;;;;;;;16.98;11.07;;;;;;;-144.73;97.81;54444.66;4985711;28;20023;-70
2023/03/08 04:24:16;;;;;;;26.13;11.20;;;;;;;-144.73;98.39;54456.97;4967626;28;20038;-70
2023/03/08 04:26:41;;;;;;;18.73;10.80;;;;;;;-144.73;99.10;54428.22;4977207;28;20460;-71
2023/03/08 04:29:07;;;;;;;16.97;10.90;;;;;;;-144.73;99.35;54448.75;4967814;28;20117;-71
2023/03/08 04:31:34;;;;;;;25.43;11.43;;;;;;;-144.73;99.52;54459.00;4976428;28;20022;-70
2023/03/08 04:34:01;;;;;;;18.20;11.10;;;;;;;-144.73;99.92;54452.84;4975851;28;20030;-70
2023/03/08 04:36:26;;;;;;;20.00;11.20;;;;;;;-144.73;100.00;54420.00;4991897;28;20100;-69
2023/03/08 04:38:51;;;;;;;19.77;9.50;;;;;;;-144.73;99.81;54442.59;4974121;28;20491;-70
2023/03/08 04:41:17;;;;;;;14.33;8.63;;;;;;;-144.73;99.77;54493.91;4976064;28;20046;-70
2023/03/08 04:43:44;;;;;;;17.53;8.10;;;;;;;-144.73;99.93;54493.91;4981812;28;20030;-70
2023/03/08 04:46:09;;;;;;;16.63;7.83;;;;;;;-144.73;99.93;54465.16;4975893;28;20534;-70
2023/03/08 04:48:35;;;;;;;18.80;6.83;;;;;;;-144.73;99.89;54493.91;4975506;28;20121;-71
2023/03/08 04:51:02;;;;;;;13.73;5.93;;;;;;;-144.73;100.00;54473.38;4979294;28;20357;-70
2023/03/08 04:53:29;;;;;;;14.30;7.60;;;;;;;-144.73;100.00;54485.69;4973706;28;20153;-70
2023/03/08 04:55:55;;;;;;;10.83;5.90;;;;;;;-144.73;99.93;54448.75;4978591;28;20041;-70
2023/03/08 04:58:21;;;;;;;15.33;7.67;;;;;;;-144.73;100.00;54444.66;5008033;28;20121;-70
2023/03/08 05:00:47;;;;;;;12.03;5.73;;;;;;;-144.73;100.00;54436.44;4975539;28;20014;-70
2023/03/08 05:03:12;;;;;;;14.50;7.27;;;;;;;-144.73;100.00;54510.31;4974288;28;20096;-70
2023/03/08 05:05:53;;;;;;;17.77;6.80;;;;;;;-144.73;100.00;54428.22;4975799;28;20022;-70
2023/03/08 05:08:20;;;;;;;15.77;5.63;;;;;;;-144.73;100.00;54428.22;4975180;28;20042;-70
2023/03/08 05:10:52;;;;;;;11.30;6.33;;;;;;;-144.73;100.00;54454.91;4975900;28;20450;-70
2023/03/08 05:13:18;;;;;;;12.60;6.47;;;;;;;-144.73;100.00;54452.84;4983124;28;20129;-70
2023/03/08 05:15:43;;;;;;;10.87;6.07;;;;;;;-144.73;100.00;54485.69;4969088;28;20130;-70
2023/03/08 05:18:08;;;;;;;15.33;5.17;;;;;;;-144.73;100.00;54440.53;4975327;28;20089;-71
2023/03/08 05:20:34;;;;;;;15.53;5.97;;;;;;;-144.73;99.48;54489.81;4975700;28;20018;-70
2023/03/08 05:22:59;;;;;;;14.60;6.30;;;;;;;-144.73;98.99;54491.84;4979461;28;20038;-70
2023/03/08 05:25:25;;;;;;;12.63;6.57;;;;;;;-144.73;98.58;54473.38;4974748;28;20030;-70
2023/03/08 05:27:50;;;;;;;14.83;8.23;;;;;;;-144.73;98.62;54444.66;4975135;28;20037;-70
2023/03/08 05:30:16;;;;;;;11.10;7.33;;;;;;;-144.73;98.68;54444.66;4973003;28;20022;-71
2023/03/08 05:32:41;;;;;;;12.07;6.83;;;;;;;-144.73;98.46;54493.91;4975732;28;20048;-70
2023/03/08 05:35:08;;;;;;;10.90;5.60;;;;;;;-144.73;98.17;54491.84;4959812;28;20085;-71
2023/03/08 05:37:33;;;;;;;11.47;5.50;;;;;;;-144.73;98.69;54481.59;4975058;28;20612;-70
2023/03/08 05:39:58;;;;;;;12.97;6.47;;;;;;;-144.73;98.17;54440.53;4974364;28;20030;-70
2023/03/08 05:42:26;;;;;;;10.50;6.00;;;;;;;-144.73;97.95;54463.13;4974943;28;20040;-70
2023/03/08 05:44:51;;;;;;;13.97;6.00;;;;;;;-144.73;97.60;54471.31;4991250;28;20444;-70
2023/03/08 05:47:17;;;;;;;18.80;6.50;;;;;;;-144.73;97.18;54510.31;5001190;28;20045;-70
2023/03/08 05:49:42;;;;;;;15.07;7.27;;;;;;;-144.73;96.98;54465.16;4981326;28;20065;-71
2023/03/08 05:52:07;;;;;;;12.23;8.17;;;;;;;-144.73;96.92;54473.38;4983288;28;20058;-70
2023/03/08 05:54:33;;;;;;;31.57;15.17;;;;;;;-144.73;96.58;54473.38;4963606;28;20073;-70
2023/03/08 05:56:58;;;;;;;29.07;17.23;;;;;;;-144.73;96.88;54436.44;4972787;28;20116;-70
2023/03/08 05:59:25;;;;;;;25.93;15.27;;;;;;;-144.73;97.45;54477.47;4978316;28;20138;-70
2023/03/08 06:01:50;;;;;;;35.87;19.03;;;;;;;-144.73;96.88;54475.44;4979109;28;20056;-71
2023/03/08 06:04:16;;;;;;;35.23;17.63;;;;;;;-144.73;97.28;54444.66;4970353;28;20097;-70
2023/03/08 06:06:41;;;;;;;36.50;16.83;;;;;;;-144.73;97.58;54498.00;4974913;28;20019;-71
2023/03/08 06:09:06;;;;;;;29.17;17.47;;;;;;;-144.73;98.08;54454.91;4991633;28;20062;-70
2023/03/08 06:11:32;;;;;;;30.97;17.63;;;;;;;-144.73;97.91;54456.97;4978857;28;20027;-70
2023/03/08 06:13:57;;;;;;;34.03;16.50;;;;;;;-144.73;98.69;54477.47;4983091;28;20061;-70
2023/03/08 06:16:22;;;;;;;36.27;18.87;;;;;;;-144.73;97.90;54420.00;4978429;28;20019;-70
2023/03/08 06:18:48;;;;;;;31.43;15.80;;;;;;;-144.73;97.72;54436.44;4990949;28;20030;-70
2023/03/08 06:21:15;;;;;;;32.30;16.73;;;;;;;-144.73;98.23;54428.22;4981735;28;20026;-70
2023/03/08 06:23:42;;;;;;;32.27;15.63;;;;;;;-144.73;97.72;54473.38;4958177;28;20038;-71
2023/03/08 06:26:09;;;;;;;35.03;19.13;;;;;;;-144.73;97.13;54489.81;4966537;28;20117;-71
2023/03/08 06:28:35;;;;;;;43.23;18.10;;;;;;;-144.73;97.49;54432.31;4970055;28;20038;-70
2023/03/08 06:31:00;;;;;;;32.57;16.93;;;;;;;-144.73;97.21;54475.44;4977686;28;20042;-71
2023/03/08 06:33:31;;;;;;;38.77;18.40;;;;;;;-144.73;96.21;54440.53;4968103;28;20054;-70
2023/03/08 06:36:05;;;;;;;34.63;19.20;;;;;;;-144.73;96.00;54461.06;4971939;28;20064;-71
2023/03/08 06:38:34;;;;;;;37.10;19.37;;;;;;;-144.73;95.36;54473.38;4977117;28;20030;-71
2023/03/08 06:41:00;;;;;;;44.63;20.20;;;;;;;-144.73;95.78;54428.22;4991634;28;20108;-70
2023/03/08 06:43:26;;;;;;;41.37;19.80;;;;;;;-144.73;95.89;54485.69;4977726;28;20630;-70
2023/03/08 06:45:52;;;;;;;43.60;19.43;;;;;;;-144.73;95.89;54506.22;4969757;28;20052;-70
2023/03/08 06:48:17;;;;;;;37.93;20.70;;;;;;;-144.73;94.99;54469.28;4985024;28;20495;-70
2023/03/08 06:50:43;;;;;;;45.40;18.73;;;;;;;-144.73;94.23;54493.91;4977056;28;20491;-70
2023/03/08 06:53:09;;;;;;;39.07;17.57;;;;;;;-144.73;94.35;54485.69;4989993;28;20038;-70
2023/03/08 06:55:36;;;;;;;31.60;16.03;;;;;;;-144.73;94.95;54461.06;4977977;28;20030;-70
2023/03/08 06:58:02;;;;;;;28.10;14.77;;;;;;;-144.73;95.31;54473.38;4977363;28;20062;-70
2023/03/08 07:00:27;;;;;;;27.67;15.60;;;;;;;-144.73;96.08;54479.53;4969414;28;20031;-70
2023/03/08 07:02:53;;;;;;;32.67;15.60;;;;;;;-144.73;95.65;54485.69;4976846;28;20088;-70
2023/03/08 07:05:19;;;;;;;28.40;14.50;;;;;;;-144.73;95.83;54473.38;4976889;28;20058;-70
2023/03/08 07:07:44;;;;;;;36.13;14.77;;;;;;;-144.73;96.22;54465.16;4970531;28;20054;-70
2023/03/08 07:10:13;;;;;;;32.27;14.27;;;;;;;-144.73;95.37;54495.97;4974142;28;20487;-70
2023/03/08 07:12:42;;;;;;;33.20;14.30;;;;;;;-144.73;95.17;54452.84;4974092;28;20034;-70
2023/03/08 07:15:09;;;;;;;33.70;14.33;;;;;;;-144.73;95.33;54444.66;4977135;28;20068;-70
2023/03/08 07:17:35;;;;;;;34.87;15.33;;;;;;;-144.73;95.02;54430.28;4982582;28;20054;-70
2023/03/08 07:20:04;;;;;;;32.03;14.57;;;;;;;-144.73;95.60;54465.16;4977163;28;20046;-70
2023/03/08 07:22:29;;;;;;;40.57;14.57;;;;;;;-144.73;95.63;54456.97;4971774;28;20033;-70
2023/03/08 07:24:55;;;;;;;35.23;14.60;;;;;;;-144.73;95.52;54424.13;4973483;28;20031;-70
2023/03/08 07:27:20;;;;;;;29.77;14.00;;;;;;;-144.73;95.19;54448.75;4974692;28;20433;-70
2023/03/08 07:29:45;;;;;;;34.97;16.93;;;;;;;-144.73;95.38;54450.81;4976409;28;20093;-71
2023/03/08 07:32:11;;;;;;;42.67;16.53;;;;;;;-144.73;95.26;54452.84;4977738;28;20026;-71
2023/03/08 07:34:36;;;;;;;38.93;17.03;;;;;;;-144.73;94.98;54469.28;4977031;28;20045;-71
2023/03/08 07:37:02;;;;;;;36.67;15.13;;;;;;;-144.73;95.06;54469.28;4974517;28;20031;-71
2023/03/08 07:39:27;;;;;;;39.43;15.40;;;;;;;-144.73;94.89;54428.22;4974568;28;20117;-71
2023/03/08 07:41:52;;;;;;;36.90;15.80;;;;;;;-144.73;93.50;54477.47;4979169;28;20464;-71
2023/03/08 07:44:18;;;;;;;40.00;15.27;;;;;;;-144.73;92.93;54469.28;4978387;28;20041;-72
2023/03/08 07:46:44;;;;;;;31.20;13.83;;;;;;;-144.73;93.06;54461.06;4978912;28;20034;-72
2023/03/08 07:49:10;;;;;;;34.27;16.37;;;;;;;-144.73;93.02;54473.38;4992218;28;20038;-72
2023/03/08 07:51:36;;;;;;;38.90;16.37;;;;;;;-144.73;92.18;54424.13;4983306;28;20072;-71
2023/03/08 07:54:01;;;;;;;39.37;18.07;;;;;;;-144.73;92.63;54477.47;4952623;28;20034;-72
2023/03/08 07:56:27;;;;;;;39.83;18.07;;;;;;;-144.73;92.86;54436.44;4953216;28;20090;-72
2023/03/08 07:58:56;;;;;;;39.60;16.63;;;;;;;-144.73;92.48;54510.31;4977408;28;20034;-72
2023/03/08 08:01:21;;;;;;;45.27;19.37;;;;;;;-144.73;93.46;54452.84;4987459;28;20041;-73
2023/03/08 08:03:47;;;;;;;42.50;18.07;;;;;;;-144.73;93.17;54452.84;5017845;28;20041;-72
2023/03/08 08:06:12;;;;;;;44.73;18.27;;;;;;;-144.73;92.29;54473.38;4986837;28;20051;-72
2023/03/08 08:08:38;;;;;;;42.07;17.97;;;;;;;-144.73;92.59;54428.22;4989187;28;20041;-72
2023/03/08 08:11:14;;;;;;;38.93;17.80;;;;;;;-144.73;92.38;54477.47;4993315;28;20112;-72
2023/03/08 08:13:39;;;;;;;42.57;18.17;;;;;;;-144.73;91.47;54469.28;4969908;28;20037;-72
2023/03/08 08:16:06;;;;;;;36.87;17.07;;;;;;;-144.73;90.42;54465.16;4993942;28;20088;-72
2023/03/08 08:18:32;;;;;;;42.50;19.40;;;;;;;-144.73;90.14;54452.84;4979674;28;20042;-72
2023/03/08 08:21:06;;;;;;;48.10;19.67;;;;;;;-144.73;90.78;54477.47;4988375;28;20018;-72
2023/03/08 08:23:33;;;;;;;59.30;24.10;;;;;;;-144.73;91.28;54432.31;4993431;28;20042;-71
2023/03/08 08:25:58;;;;;;;48.03;22.70;;;;;;;-144.73;91.46;54481.59;4977706;28;20018;-71
2023/03/08 08:28:25;;;;;;;46.87;22.77;;;;;;;-144.73;92.00;54442.59;4968355;28;20049;-72
2023/03/08 08:31:12;;;;;;;44.30;21.33;;;;;;;-144.73;90.49;54432.31;4995995;28;20029;-72
2023/03/08 08:33:38;;;;;;;50.80;23.63;;;;;;;-144.73;90.38;54448.75;4963585;28;20042;-72
2023/03/08 08:36:05;;;;;;;53.87;25.67;;;;;;;-144.73;91.43;54463.13;4970726;28;20045;-71
2023/03/08 08:38:31;;;;;;;56.43;26.40;;;;;;;-144.73;90.30;54473.38;4977553;28;20125;-72
2023/03/08 08:41:01;;;;;;;59.43;26.23;;;;;;;-144.73;90.68;54469.28;4988291;28;20121;-71
2023/03/08 08:43:27;;;;;;;51.60;26.33;;;;;;;-144.73;90.32;54432.31;4980035;28;20117;-70
2023/03/08 08:45:54;;;;;;;48.60;25.40;;;;;;;-144.73;90.19;54436.44;4972813;28;20018;-70
2023/03/08 08:48:20;;;;;;;65.13;27.47;;;;;;;-144.73;90.33;54491.84;4982604;28;20049;-71
2023/03/08 08:50:45;;;;;;;51.17;24.40;;;;;;;-144.73;90.11;54487.75;4971952;28;20072;-71
2023/03/08 08:53:11;;;;;;;53.00;24.57;;;;;;;-144.73;89.76;54481.59;4974244;28;20045;-71
2023/03/08 08:55:36;;;;;;;54.00;22.70;;;;;;;-144.73;89.01;54467.22;4976197;28;20033;-71
2023/03/08 08:58:04;;;;;;;42.50;21.37;;;;;;;-144.73;89.94;54444.66;4978241;28;20105;-71
2023/03/08 09:00:30;;;;;;;44.10;21.67;;;;;;;-144.73;90.41;54481.59;4985505;28;20140;-71
2023/03/08 09:02:56;;;;;;;45.53;22.03;;;;;;;-144.73;89.95;54448.75;4987223;28;20034;-71
2023/03/08 09:05:21;;;;;;;43.20;21.37;;;;;;;-144.73;90.23;54473.38;4986581;28;20044;-71
2023/03/08 09:07:47;;;;;;;38.90;20.70;;;;;;;-144.73;89.96;54446.69;4986347;28;20018;-70
2023/03/08 09:10:12;;;;;;;38.23;21.60;;;;;;;-144.73;91.17;54465.16;4971162;28;20080;-71
2023/03/08 09:12:38;;;;;;;39.20;20.27;;;;;;;-144.73;89.80;54485.69;4973224;28;20029;-70
2023/03/08 09:15:05;;;;;;;40.10;21.03;;;;;;;-144.73;89.28;54489.81;4977098;28;20517;-70
2023/03/08 09:17:32;;;;;;;47.33;24.27;;;;;;;-144.73;88.88;54461.06;4974502;28;20027;-70
2023/03/08 09:19:58;;;;;;;43.73;21.87;;;;;;;-144.73;89.46;54485.69;4973658;28;20073;-71
2023/03/08 09:22:24;;;;;;;47.40;23.27;;;;;;;-144.73;89.16;54477.47;4986901;28;20053;-70
2023/03/08 09:24:49;;;;;;;49.30;21.90;;;;;;;-144.73;89.68;54448.75;4968698;28;20053;-70
2023/03/08 09:27:15;;;;;;;42.00;20.57;;;;;;;-144.73;89.61;54452.84;4968713;28;20468;-70
2023/03/08 09:29:40;;;;;;;46.17;19.43;;;;;;;-144.73;90.82;54489.81;4969150;28;20034;-70
2023/03/08 09:32:06;;;;;;;40.10;20.47;;;;;;;-144.73;89.88;54456.97;4967515;28;20022;-70
2023/03/08 09:34:31;;;;;;;48.80;21.63;;;;;;;-144.73;89.51;54465.16;4978592;28;20045;-70
2023/03/08 09:36:57;;;;;;;42.83;20.53;;;;;;;-144.73;88.36;54461.06;4973098;28;20034;-70
2023/03/08 09:39:22;;;;;;;41.03;21.60;;;;;;;-144.73;87.93;54477.47;4973782;28;20394;-71
2023/03/08 09:41:50;;;;;;;42.67;21.83;;;;;;;-144.73;86.76;54407.69;4984604;28;20077;-70
2023/03/08 09:44:50;;;;;;;40.95;21.52;;;;;;;-144.73;86.51;54481.59;4986145;28;20038;-71
2023/03/08 09:47:38;;;;;;;34.35;19.92;;;;;;;-144.73;86.08;54530.84;4981340;28;20034;-70
2023/03/08 09:50:20;;;;;;;43.97;22.88;;;;;;;-144.73;86.93;54487.75;4969012;28;20042;-70
2023/03/08 09:52:56;;;;;;;47.13;24.42;;;;;;;-144.73;87.84;54473.38;4984773;28;20041;-71
2023/03/08 09:55:31;;;;;;;51.15;26.48;;;;;;;-144.73;88.91;54469.28;4974006;28;20018;-71
2023/03/08 09:58:18;;;;;;;48.53;25.83;;;;;;;-144.73;87.66;54456.97;4977263;28;20068;-70
2023/03/08 10:00:45;;;;;;;44.58;22.48;;;;;;;-144.73;85.60;54461.06;4982897;28;20051;-71
2023/03/08 10:03:17;;;;;;;40.03;21.13;;;;;;;-144.73;88.03;54465.16;4971749;28;20030;-70
2023/03/08 10:05:53;;;;;;;43.80;20.63;;;;;;;-144.73;88.53;54477.47;4990853;28;20030;-70
2023/03/08 10:08:24;;;;;;;43.03;19.07;;;;;;;-144.73;87.41;54467.22;4976307;28;20038;-70
2023/03/08 10:11:11;;;;;;;35.00;18.55;;;;;;;-144.73;86.85;54469.28;4995193;28;20026;-70
2023/03/08 10:13:38;;;;;;;35.37;17.40;;;;;;;-144.73;87.80;54477.47;4971986;28;20133;-70
2023/03/08 10:16:19;;;;;;;34.45;17.30;;;;;;;-144.73;87.71;54452.84;4964576;28;20026;-71
2023/03/08 10:18:55;;;;;;;42.72;19.85;;;;;;;-144.73;86.78;54461.06;4968376;28;20035;-71
2023/03/08 10:21:23;;;;;;;41.35;19.58;;;;;;;-144.73;88.46;54465.16;4967345;28;20123;-70
2023/03/08 10:23:58;;;;;;;36.45;18.20;;;;;;;-144.73;87.98;54461.06;4968108;28;20046;-70
2023/03/08 10:26:26;;;;;;;44.80;16.98;;;;;;;-144.73;87.08;54477.47;4968145;28;20029;-69
2023/03/08 10:28:52;;;;;;;39.90;17.65;;;;;;;-144.73;87.46;54498.00;4983144;28;20034;-70
2023/03/08 10:31:25;;;;;;;31.37;15.00;;;;;;;-144.73;88.44;54473.38;4969301;28;20048;-70
2023/03/08 10:33:59;;;;;;;31.70;15.98;;;;;;;-144.73;86.95;54493.91;4988463;28;20066;-70
2023/03/08 10:36:25;;;;;;;29.95;15.30;;;;;;;-144.73;86.56;54440.53;4963606;28;20084;-70
2023/03/08 10:39:07;;;;;;;24.65;13.50;;;;;;;-144.73;84.93;54463.13;4965970;28;20042;-70
2023/03/08 10:41:43;;;;;;;31.33;15.27;;;;;;;-144.73;84.98;54452.84;4970548;28;20030;-69
2023/03/08 10:44:14;;;;;;;33.30;15.50;;;;;;;-144.73;85.36;54436.44;4985927;28;20842;-72
2023/03/08 10:46:48;;;;;;;34.90;13.93;;;;;;;-144.73;84.95;54477.47;4973201;28;20092;-69
2023/03/08 10:49:17;;;;;;;29.67;13.13;;;;;;;-144.73;83.19;54481.59;4984018;28;20166;-69
2023/03/08 10:51:57;;;;;;;23.63;14.38;;;;;;;-144.73;83.55;54473.38;4995554;28;20034;-69
2023/03/08 10:54:23;;;;;;;23.73;12.77;;;;;;;-144.73;83.24;54461.06;4986823;28;20049;-70
2023/03/08 10:56:56;;;;;;;25.40;12.02;;;;;;;-144.73;83.46;54485.69;4980042;28;20034;-69
2023/03/08 10:59:28;;;;;;;26.95;14.30;;;;;;;-144.73;81.07;54452.84;4977251;28;20403;-68
2023/03/08 11:01:58;;;;;;;26.00;12.90;;;;;;;-144.73;81.39;54444.66;4991800;28;20097;-69
2023/03/08 11:04:26;;;;;;;24.08;13.35;;;;;;;-144.73;81.70;54428.22;4972150;28;20036;-69
2023/03/08 11:06:52;;;;;;;29.00;12.75;;;;;;;-144.73;81.64;54465.16;4988252;28;20349;-69